Terminal Aerodrome Forecast
Issued by NWS

Home | Current Version | Previous Version | Graphics & Text | Print | Product List | Glossary On
Versions: 1 2 3 4 5 6 7 8 9 10 11 12 13 14 15 16
000
FTUS42 KMHX 180236 AAA
TAFPGV
TAF AMD
KPGV 180236Z 1803/1824 00000KT 2SM BR SCT020
      TEMPO 1803/1807 1SM BR VV007
     FM181300 21004KT P6SM FEW020
     FM181700 22013G19KT P6SM SCT040
      AMD LTD TO CLD VIS AND WIND=

USA.gov is the U.S. government's official web portal to all federal, state and local government web resources and services.